Time;durP1;ratioP1;P1;durP2;ratioP2;P2;SDS_P1;SDS_P2;PMS_P1;PMS_P2;Temp;Humidity;BMP_temperature;BMP_pressure;BME280_temperature;BME280_humidity;BME280_pressure;Samples;Min_cycle;Max_cycle;Signal;HPM_P1;HPM_P2
2021/09/20 00:01:33;;;;;;;6.55;1.13;;;;;;;12.80;83.04;100897.38;5029243;28;20033;-79
2021/09/20 00:03:58;;;;;;;7.20;0.95;;;;;;;12.78;83.09;100896.84;5020984;28;20033;-79
2021/09/20 00:06:24;;;;;;;4.90;0.90;;;;;;;12.77;83.14;100903.56;5016081;28;20036;-79
2021/09/20 00:08:49;;;;;;;5.72;1.10;;;;;;;12.71;83.26;100900.84;5051243;28;20025;-79
2021/09/20 00:11:15;;;;;;;8.05;1.15;;;;;;;12.66;83.18;100900.91;5015163;28;20033;-79
2021/09/20 00:13:40;;;;;;;5.35;1.10;;;;;;;12.68;83.09;100900.63;5033784;28;20028;-79
2021/09/20 00:16:06;;;;;;;7.55;1.30;;;;;;;12.63;82.92;100895.94;5024488;28;20037;-79
2021/09/20 00:18:31;;;;;;;7.93;1.83;;;;;;;12.63;82.91;100890.34;5047870;28;20036;-79
2021/09/20 00:20:57;;;;;;;5.30;1.60;;;;;;;12.59;83.11;100903.25;5017642;28;20112;-79
2021/09/20 00:23:22;;;;;;;6.10;1.33;;;;;;;12.57;82.97;100899.91;4997607;28;20041;-79
2021/09/20 00:25:48;;;;;;;5.78;1.80;;;;;;;12.55;83.23;100896.59;5036715;28;20044;-79
2021/09/20 00:28:13;;;;;;;4.68;1.58;;;;;;;12.51;83.41;100896.38;5032499;28;20039;-79
2021/09/20 00:30:40;;;;;;;5.20;1.58;;;;;;;12.53;83.18;100891.31;5015139;28;20067;-79
2021/09/20 00:33:07;;;;;;;9.23;1.98;;;;;;;12.45;83.22;100894.78;5033800;28;20033;-79
2021/09/20 00:35:32;;;;;;;5.93;1.90;;;;;;;12.44;83.24;100895.88;5030241;28;20027;-79
2021/09/20 00:37:58;;;;;;;8.13;1.90;;;;;;;12.43;83.31;100888.66;5041442;28;20041;-79
2021/09/20 00:40:23;;;;;;;5.03;1.90;;;;;;;12.39;83.36;100890.38;5030003;28;20477;-78
2021/09/20 00:42:49;;;;;;;6.78;2.00;;;;;;;12.37;83.34;100889.00;5017997;28;20025;-79
2021/09/20 00:45:14;;;;;;;10.45;2.40;;;;;;;12.32;83.50;100883.53;5038779;28;20040;-80
2021/09/20 00:47:40;;;;;;;7.18;2.28;;;;;;;12.26;83.72;100888.31;5024716;28;20064;-79
2021/09/20 00:50:06;;;;;;;6.72;2.17;;;;;;;12.26;83.34;100894.72;5000889;28;20024;-79
2021/09/20 00:52:31;;;;;;;4.88;2.25;;;;;;;12.26;83.43;100893.88;5020456;28;20033;-79
2021/09/20 00:54:57;;;;;;;6.30;2.30;;;;;;;12.24;83.65;100891.38;5023615;28;20033;-78
2021/09/20 00:57:22;;;;;;;4.32;2.03;;;;;;;12.20;83.58;100895.91;5021857;28;20040;-78
2021/09/20 00:59:48;;;;;;;7.10;2.22;;;;;;;12.19;83.51;100894.22;5033881;28;20029;-78
2021/09/20 01:02:13;;;;;;;5.72;2.25;;;;;;;12.14;83.63;100897.06;5017476;28;20033;-78
2021/09/20 01:04:39;;;;;;;6.28;2.05;;;;;;;12.12;83.91;100898.47;5036881;28;20036;-77
2021/09/20 01:07:04;;;;;;;7.70;2.10;;;;;;;12.10;83.71;100901.56;5053636;28;20033;-79
2021/09/20 01:09:30;;;;;;;7.25;2.22;;;;;;;12.10;83.93;100898.78;5034589;28;20033;-79
2021/09/20 01:11:55;;;;;;;10.02;2.75;;;;;;;12.06;83.88;100898.56;5002377;28;20039;-78
2021/09/20 01:14:21;;;;;;;5.90;1.75;;;;;;;12.08;83.69;100901.03;5019865;28;20029;-78
2021/09/20 01:16:46;;;;;;;7.68;1.92;;;;;;;12.04;83.91;100897.19;5034210;28;20086;-79
2021/09/20 01:19:12;;;;;;;5.93;1.90;;;;;;;12.03;83.50;100899.13;5017956;28;20025;-79
2021/09/20 01:21:37;;;;;;;4.55;1.85;;;;;;;12.00;83.67;100901.66;5034253;28;20094;-79
2021/09/20 01:24:03;;;;;;;6.32;1.80;;;;;;;11.94;83.68;100897.28;5020244;28;20045;-79
2021/09/20 01:26:29;;;;;;;7.45;1.88;;;;;;;11.93;83.69;100896.47;5053333;28;20059;-78
2021/09/20 01:28:54;;;;;;;7.53;1.58;;;;;;;11.94;83.84;100902.84;5051775;28;20017;-78
2021/09/20 01:31:20;;;;;;;7.35;1.75;;;;;;;11.91;83.89;100889.53;5050106;28;20479;-78
2021/09/20 01:33:45;;;;;;;5.55;1.52;;;;;;;11.88;83.74;100895.69;5043934;28;20040;-78
2021/09/20 01:36:11;;;;;;;5.50;1.35;;;;;;;11.84;83.94;100901.81;5005070;28;20037;-78
2021/09/20 01:38:36;;;;;;;7.18;1.70;;;;;;;11.85;83.64;100897.91;5005024;28;20114;-78
2021/09/20 01:41:02;;;;;;;6.85;1.73;;;;;;;11.83;83.83;100896.53;5016014;28;20130;-78
2021/09/20 01:43:28;;;;;;;6.53;1.40;;;;;;;11.79;83.88;100901.84;5002728;28;20048;-78
2021/09/20 01:45:53;;;;;;;5.47;1.50;;;;;;;11.76;83.82;100894.09;5021020;28;20033;-78
2021/09/20 01:48:19;;;;;;;7.13;1.70;;;;;;;11.75;83.79;100897.97;5051312;28;20055;-78
2021/09/20 01:50:45;;;;;;;7.93;1.70;;;;;;;11.75;83.80;100900.75;5034607;28;20035;-79
2021/09/20 01:53:11;;;;;;;5.75;1.73;;;;;;;11.73;83.89;100902.16;5053696;28;20052;-78
2021/09/20 01:55:36;;;;;;;6.43;1.20;;;;;;;11.74;84.13;100907.47;5032603;28;20388;-78
2021/09/20 01:58:02;;;;;;;6.95;1.30;;;;;;;11.71;84.08;100904.44;5017012;28;20033;-78
2021/09/20 02:00:28;;;;;;;6.38;1.25;;;;;;;11.70;84.11;100898.06;5019043;28;20026;-78
2021/09/20 02:02:53;;;;;;;8.45;1.45;;;;;;;11.69;83.75;100903.88;4990121;28;20168;-79
2021/09/20 02:05:19;;;;;;;5.55;1.35;;;;;;;11.68;83.89;100897.50;5021541;28;20029;-78
2021/09/20 02:07:44;;;;;;;6.00;1.33;;;;;;;11.69;83.49;100896.38;5018792;28;20504;-79
2021/09/20 02:10:13;;;;;;;4.60;1.00;;;;;;;11.63;83.71;100887.25;5037971;28;20025;-79
2021/09/20 02:12:38;;;;;;;5.43;1.17;;;;;;;11.59;83.98;100891.75;5014636;28;20082;-78
2021/09/20 02:15:05;;;;;;;5.38;1.10;;;;;;;11.58;83.90;100894.81;5006202;28;20025;-79
2021/09/20 02:17:30;;;;;;;6.25;1.20;;;;;;;11.60;83.97;100898.13;5037057;28;20029;-78
2021/09/20 02:19:56;;;;;;;6.05;1.38;;;;;;;11.54;84.12;100889.00;5056090;28;20044;-78
2021/09/20 02:22:21;;;;;;;3.78;1.20;;;;;;;11.52;83.96;100902.34;5039444;28;20041;-79
2021/09/20 02:24:47;;;;;;;6.65;0.88;;;;;;;11.53;83.92;100894.84;5037141;28;20037;-79
2021/09/20 02:27:12;;;;;;;6.38;0.90;;;;;;;11.47;84.15;100901.56;5004308;28;20469;-79
2021/09/20 02:29:38;;;;;;;5.93;1.30;;;;;;;11.48;84.16;100900.44;5019553;28;20025;-78
2021/09/20 02:32:04;;;;;;;5.43;1.27;;;;;;;11.46;84.10;100906.31;5021688;28;20036;-79
2021/09/20 02:34:30;;;;;;;5.85;0.98;;;;;;;11.45;84.10;100901.03;5022636;28;20028;-78
2021/09/20 02:36:55;;;;;;;7.57;1.00;;;;;;;11.46;84.06;100899.91;5020427;28;20057;-79
2021/09/20 02:39:21;;;;;;;6.43;1.50;;;;;;;11.44;84.18;100904.94;5020805;28;20033;-79
2021/09/20 02:41:46;;;;;;;3.80;0.90;;;;;;;11.41;83.84;100907.16;5037515;28;20040;-79
2021/09/20 02:44:12;;;;;;;4.85;1.25;;;;;;;11.40;83.80;100899.97;5038075;28;20083;-79
2021/09/20 02:46:38;;;;;;;5.07;0.80;;;;;;;11.41;83.95;100900.78;5004046;28;20045;-80
2021/09/20 02:49:04;;;;;;;5.32;0.93;;;;;;;11.38;84.02;100901.38;5018590;28;20018;-79
2021/09/20 02:51:29;;;;;;;4.95;1.10;;;;;;;11.34;84.16;100898.34;5020230;28;20033;-79
2021/09/20 02:53:56;;;;;;;6.78;0.80;;;;;;;11.35;83.90;100908.34;5038335;28;20041;-79
2021/09/20 02:56:22;;;;;;;5.07;1.00;;;;;;;11.33;84.26;100899.44;5021844;28;20022;-78
2021/09/20 02:58:47;;;;;;;5.50;0.93;;;;;;;11.32;84.20;100908.09;5053840;28;20087;-79
2021/09/20 03:01:13;;;;;;;8.77;1.05;;;;;;;11.30;84.67;100905.59;5037099;28;20032;-78
2021/09/20 03:03:38;;;;;;;8.80;1.20;;;;;;;11.28;84.88;100905.06;5020786;28;20040;-78
2021/09/20 03:06:04;;;;;;;4.20;0.82;;;;;;;11.27;84.80;100917.28;5022274;28;20033;-79
2021/09/20 03:08:29;;;;;;;7.22;1.02;;;;;;;11.28;84.34;100913.41;5036302;28;20029;-79
2021/09/20 03:10:55;;;;;;;7.30;1.00;;;;;;;11.24;84.68;100917.03;5035761;28;20397;-79
2021/09/20 03:13:20;;;;;;;5.47;0.90;;;;;;;11.21;84.87;100917.63;5021702;28;20028;-79
2021/09/20 03:15:46;;;;;;;7.55;1.20;;;;;;;11.16;85.25;100924.88;5020927;28;20493;-78
2021/09/20 03:18:11;;;;;;;10.40;1.23;;;;;;;11.18;85.10;100924.59;5038012;28;20036;-79
2021/09/20 03:20:37;;;;;;;6.50;1.00;;;;;;;11.16;85.11;100916.53;5020302;28;20112;-79
2021/09/20 03:23:02;;;;;;;4.80;0.90;;;;;;;11.15;85.06;100920.44;5018100;28;20033;-79
2021/09/20 03:25:28;;;;;;;6.00;1.23;;;;;;;11.15;85.09;100922.38;5019273;28;20132;-78
2021/09/20 03:27:53;;;;;;;5.57;1.08;;;;;;;11.16;85.24;100921.25;5062955;28;20040;-79
2021/09/20 03:30:19;;;;;;;3.40;0.60;;;;;;;11.16;84.70;100924.03;5017571;28;20090;-78
2021/09/20 03:32:44;;;;;;;4.82;0.73;;;;;;;11.14;84.94;100929.91;5034770;28;20067;-78
2021/09/20 03:35:12;;;;;;;3.88;0.90;;;;;;;11.13;85.22;100932.97;5035636;28;20062;-78
2021/09/20 03:37:38;;;;;;;3.45;0.68;;;;;;;11.12;84.99;100928.53;5053919;28;20032;-78
2021/09/20 03:40:04;;;;;;;4.55;0.75;;;;;;;11.13;84.78;100935.75;5052739;28;20179;-79
2021/09/20 03:42:29;;;;;;;3.60;0.80;;;;;;;11.11;84.85;100937.97;5047688;28;20036;-78
2021/09/20 03:44:55;;;;;;;4.50;0.88;;;;;;;11.07;84.70;100934.94;5046230;28;20049;-78
2021/09/20 03:47:20;;;;;;;3.55;0.80;;;;;;;11.07;84.72;100923.00;5035660;28;20029;-78
2021/09/20 03:49:46;;;;;;;4.75;0.80;;;;;;;11.06;84.48;100929.66;5036598;28;20038;-78
2021/09/20 03:52:11;;;;;;;5.45;1.13;;;;;;;11.03;84.57;100933.88;5050359;28;20099;-78
2021/09/20 03:54:37;;;;;;;4.22;0.77;;;;;;;11.02;84.24;100932.19;5034868;28;20067;-78
2021/09/20 03:57:02;;;;;;;5.35;1.05;;;;;;;10.99;84.41;100924.41;5036285;28;20025;-78
2021/09/20 03:59:29;;;;;;;4.55;0.77;;;;;;;10.98;84.48;100921.91;5019267;28;20059;-78
2021/09/20 04:01:56;;;;;;;5.90;0.95;;;;;;;10.93;84.91;100928.34;5048652;28;20036;-78
2021/09/20 04:04:21;;;;;;;5.03;0.68;;;;;;;10.92;84.47;100933.09;5046269;28;20493;-78
2021/09/20 04:06:47;;;;;;;4.40;0.70;;;;;;;10.90;84.51;100929.75;5017744;28;20054;-77
2021/09/20 04:09:12;;;;;;;4.35;0.88;;;;;;;10.86;84.47;100934.19;5016201;28;20470;-77
2021/09/20 04:11:40;;;;;;;5.00;1.10;;;;;;;10.86;84.73;100939.75;5017606;28;20029;-78
2021/09/20 04:14:06;;;;;;;4.15;0.88;;;;;;;10.81;84.87;100948.16;5029678;28;20488;-78
2021/09/20 04:16:32;;;;;;;3.35;0.80;;;;;;;10.82;84.54;100941.47;5035493;28;20098;-78
2021/09/20 04:18:57;;;;;;;2.97;0.73;;;;;;;10.82;84.59;100946.19;5021020;28;20025;-78
2021/09/20 04:21:23;;;;;;;3.45;0.70;;;;;;;10.79;84.64;100939.25;5018963;28;20044;-77
2021/09/20 04:23:48;;;;;;;6.43;0.70;;;;;;;10.80;84.57;100940.91;5037565;28;20058;-77
2021/09/20 04:26:14;;;;;;;5.95;0.82;;;;;;;10.78;84.46;100940.38;5040080;28;20036;-77
2021/09/20 04:28:40;;;;;;;6.30;0.85;;;;;;;10.79;84.37;100933.69;5031501;28;20574;-77
2021/09/20 04:31:05;;;;;;;5.40;0.80;;;;;;;10.73;84.45;100938.44;5024040;28;20374;-77
2021/09/20 04:33:31;;;;;;;5.30;0.98;;;;;;;10.73;84.59;100937.63;4990913;28;20029;-77
2021/09/20 04:35:56;;;;;;;4.70;0.85;;;;;;;10.72;84.35;100933.16;5041718;28;20025;-78
2021/09/20 04:38:22;;;;;;;4.85;0.90;;;;;;;10.71;84.69;100934.28;5056739;28;20025;-78
2021/09/20 04:40:47;;;;;;;5.68;0.88;;;;;;;10.67;84.57;100941.50;5038239;28;20582;-79
2021/09/20 04:43:13;;;;;;;6.75;1.02;;;;;;;10.64;84.94;100936.53;5023259;28;20094;-77
2021/09/20 04:45:38;;;;;;;5.10;0.63;;;;;;;10.65;84.85;100938.22;5036275;28;20079;-78
2021/09/20 04:48:06;;;;;;;7.28;0.95;;;;;;;10.63;84.79;100940.44;5025409;28;20052;-79
2021/09/20 04:50:32;;;;;;;6.65;1.05;;;;;;;10.58;84.91;100940.44;5025635;28;20690;-79
2021/09/20 04:52:58;;;;;;;3.58;0.50;;;;;;;10.56;85.03;100934.34;5038681;28;20079;-79
2021/09/20 04:55:23;;;;;;;6.70;1.13;;;;;;;10.55;84.98;100936.28;5024066;28;20039;-79
2021/09/20 04:57:49;;;;;;;5.60;1.02;;;;;;;10.57;85.05;100936.03;5040079;28;20112;-79
2021/09/20 05:00:15;;;;;;;3.25;0.77;;;;;;;10.55;85.32;100936.28;5058335;28;20123;-78
2021/09/20 05:02:40;;;;;;;8.00;1.17;;;;;;;10.56;85.23;100939.91;5024055;28;20037;-79
2021/09/20 05:05:06;;;;;;;6.10;0.98;;;;;;;10.54;85.07;100944.94;5022005;28;20630;-79
2021/09/20 05:07:33;;;;;;;5.53;1.27;;;;;;;10.53;84.90;100949.66;5039736;28;20041;-78
2021/09/20 05:09:59;;;;;;;6.63;0.93;;;;;;;10.50;85.48;100941.88;5023678;28;20074;-79
2021/09/20 05:12:25;;;;;;;4.53;0.80;;;;;;;10.49;85.41;100946.59;5039626;28;20033;-78
2021/09/20 05:14:50;;;;;;;4.93;1.00;;;;;;;10.49;85.40;100941.03;5006349;28;20041;-78
2021/09/20 05:17:16;;;;;;;7.13;1.02;;;;;;;10.50;85.11;100945.50;5056207;28;20029;-78
2021/09/20 05:19:41;;;;;;;5.97;1.05;;;;;;;10.48;85.34;100947.72;5039310;28;20033;-78
2021/09/20 05:22:07;;;;;;;4.65;0.75;;;;;;;10.46;85.47;100958.28;5023261;28;20040;-78
2021/09/20 05:24:32;;;;;;;4.38;0.90;;;;;;;10.46;85.17;100947.16;5038825;28;20029;-79
2021/09/20 05:26:58;;;;;;;4.60;0.88;;;;;;;10.50;85.26;100950.19;5015535;28;20025;-78
2021/09/20 05:29:23;;;;;;;9.02;1.27;;;;;;;10.45;85.33;100948.28;5021005;28;20053;-78
2021/09/20 05:31:49;;;;;;;4.82;1.35;;;;;;;10.45;85.34;100955.78;5023298;28;20107;-78
2021/09/20 05:34:14;;;;;;;5.03;1.17;;;;;;;10.45;85.48;100956.63;5038835;28;20033;-78
2021/09/20 05:36:40;;;;;;;3.20;0.60;;;;;;;10.45;85.73;100961.34;5019850;28;20037;-78
2021/09/20 05:39:05;;;;;;;3.63;1.17;;;;;;;10.46;85.52;100963.00;5020405;28;20029;-78
2021/09/20 05:41:31;;;;;;;5.95;0.90;;;;;;;10.45;85.38;100966.91;5039629;28;20100;-78
2021/09/20 05:43:56;;;;;;;5.78;0.80;;;;;;;10.46;85.60;100963.00;5045242;28;20049;-78
2021/09/20 05:46:22;;;;;;;5.78;0.90;;;;;;;10.47;85.46;100970.19;5022689;28;20037;-78
2021/09/20 05:48:47;;;;;;;4.10;1.00;;;;;;;10.46;85.76;100968.53;5024451;28;20029;-78
2021/09/20 05:51:13;;;;;;;4.53;0.73;;;;;;;10.47;85.60;100967.41;5058672;28;20059;-79
2021/09/20 05:53:39;;;;;;;3.53;0.93;;;;;;;10.47;85.45;100968.28;5038755;28;20037;-78
2021/09/20 05:56:07;;;;;;;6.40;0.85;;;;;;;10.48;85.42;100972.72;5014778;28;20068;-78
2021/09/20 05:58:32;;;;;;;6.55;1.02;;;;;;;10.46;85.49;100965.78;5023102;28;20132;-79
2021/09/20 06:00:58;;;;;;;3.70;0.70;;;;;;;10.47;85.44;100973.84;5020872;28;20033;-78
2021/09/20 06:03:23;;;;;;;6.60;0.80;;;;;;;10.46;85.69;100969.38;5022764;28;20017;-79
2021/09/20 06:05:49;;;;;;;6.47;0.88;;;;;;;10.46;85.63;100974.94;5048687;28;20032;-78
2021/09/20 06:08:14;;;;;;;4.47;1.17;;;;;;;10.48;85.58;100978.25;5055109;28;20033;-77
2021/09/20 06:10:40;;;;;;;5.55;0.85;;;;;;;10.49;85.75;100976.31;5037207;28;20036;-78
2021/09/20 06:13:07;;;;;;;5.28;0.70;;;;;;;10.49;85.80;100970.75;5038247;28;20032;-78
2021/09/20 06:15:33;;;;;;;6.85;0.98;;;;;;;10.54;85.59;100975.47;5044301;28;20127;-77
2021/09/20 06:17:59;;;;;;;6.93;1.25;;;;;;;10.55;85.82;100977.13;5023773;28;20029;-79
2021/09/20 06:20:24;;;;;;;6.25;1.30;;;;;;;10.54;85.87;100976.31;5011582;28;20064;-69
2021/09/20 06:22:50;;;;;;;8.48;0.95;;;;;;;10.60;86.86;100985.44;5050288;28;20039;-68
2021/09/20 06:25:15;;;;;;;4.57;0.90;;;;;;;10.63;87.05;100979.31;4988921;28;20033;-69
2021/09/20 06:27:41;;;;;;;5.05;0.65;;;;;;;10.67;86.72;100984.03;5021724;28;20029;-69
2021/09/20 06:30:07;;;;;;;4.30;0.70;;;;;;;10.64;86.95;100987.38;5018568;28;20029;-69
2021/09/20 06:32:33;;;;;;;4.55;0.90;;;;;;;10.70;86.58;100985.44;5003308;28;20657;-69
2021/09/20 06:34:58;;;;;;;4.57;0.88;;;;;;;10.73;87.12;100984.84;5004026;28;20055;-69
2021/09/20 06:37:24;;;;;;;5.75;0.80;;;;;;;10.73;87.18;100988.47;5038643;28;20468;-68
2021/09/20 06:39:49;;;;;;;6.25;1.17;;;;;;;10.79;86.72;100989.28;5038669;28;20032;-68
2021/09/20 06:42:15;;;;;;;7.18;1.00;;;;;;;10.85;86.54;100987.31;5003859;28;20056;-68
2021/09/20 06:44:40;;;;;;;4.40;1.05;;;;;;;10.86;86.98;100989.78;4997741;28;20049;-68
2021/09/20 06:47:07;;;;;;;4.47;1.10;;;;;;;10.88;87.10;100993.13;5038636;28;20029;-68
2021/09/20 06:49:32;;;;;;;6.05;0.88;;;;;;;10.92;87.76;100991.44;5022972;28;20477;-68
2021/09/20 06:51:58;;;;;;;6.45;1.08;;;;;;;10.96;87.22;100992.53;5007806;28;20147;-68
2021/09/20 06:54:23;;;;;;;7.63;1.00;;;;;;;10.98;87.49;101000.59;5012166;28;20048;-68
2021/09/20 06:56:49;;;;;;;7.88;1.30;;;;;;;11.01;88.86;100991.69;5019888;28;20044;-68
2021/09/20 06:59:14;;;;;;;6.22;1.20;;;;;;;11.04;88.10;101009.72;5019740;28;20034;-68
2021/09/20 07:01:40;;;;;;;9.13;1.25;;;;;;;11.08;88.23;101002.47;5022479;28;20021;-68
2021/09/20 07:04:05;;;;;;;8.55;1.00;;;;;;;11.14;88.67;101015.22;5014632;28;20388;-68
2021/09/20 07:06:31;;;;;;;8.15;1.45;;;;;;;11.18;88.08;101019.94;5020708;28;20052;-68
2021/09/20 07:08:56;;;;;;;9.57;1.60;;;;;;;11.24;88.14;101019.91;5035895;28;20025;-68
2021/09/20 07:11:22;;;;;;;4.70;0.90;;;;;;;11.26;88.76;101020.47;5022046;28;20063;-68
2021/09/20 07:13:48;;;;;;;9.55;1.25;;;;;;;11.32;88.33;101028.47;5021154;28;20037;-68
2021/09/20 07:16:13;;;;;;;7.60;0.98;;;;;;;11.38;88.18;101018.16;5003362;28;20033;-67
2021/09/20 07:18:39;;;;;;;8.45;1.02;;;;;;;11.39;88.54;101017.88;5018394;28;20045;-68
2021/09/20 07:21:04;;;;;;;7.47;1.10;;;;;;;11.50;88.38;101020.59;5018394;28;20104;-67
2021/09/20 07:23:30;;;;;;;5.78;1.00;;;;;;;11.56;88.69;101019.44;5001393;28;20436;-67
2021/09/20 07:25:55;;;;;;;10.40;1.25;;;;;;;11.66;88.93;101012.97;5021962;28;20615;-67
2021/09/20 07:28:21;;;;;;;5.43;0.95;;;;;;;11.75;88.65;101017.63;5004406;28;20041;-67
2021/09/20 07:30:47;;;;;;;5.88;0.90;;;;;;;11.89;88.29;101025.34;5019309;28;20079;-68
2021/09/20 07:33:12;;;;;;;7.78;1.15;;;;;;;12.02;88.72;101025.53;5020330;28;20044;-68
2021/09/20 07:35:38;;;;;;;8.30;1.52;;;;;;;12.18;92.91;101025.41;5037643;28;20079;-68
2021/09/20 07:38:03;;;;;;;10.50;1.05;;;;;;;12.32;91.46;101022.78;5019115;28;20032;-68
2021/09/20 07:40:29;;;;;;;7.10;1.20;;;;;;;12.45;91.12;101016.50;5004912;28;20063;-68
2021/09/20 07:42:55;;;;;;;8.70;1.48;;;;;;;12.62;92.25;101025.25;5019051;28;20052;-68
2021/09/20 07:45:21;;;;;;;6.85;2.15;;;;;;;12.78;94.69;101030.63;5003990;28;20480;-68
2021/09/20 07:47:46;;;;;;;10.00;1.88;;;;;;;12.93;95.18;101033.25;5020557;28;20033;-68
2021/09/20 07:50:14;;;;;;;12.75;1.45;;;;;;;13.06;91.13;101026.94;5034017;28;20033;-68
2021/09/20 07:52:39;;;;;;;11.70;1.60;;;;;;;13.25;94.79;101023.34;5037142;28;20024;-68
2021/09/20 07:55:05;;;;;;;7.03;1.20;;;;;;;13.40;92.64;101040.75;5019036;28;20044;-68
2021/09/20 07:57:31;;;;;;;13.07;1.98;;;;;;;13.55;94.93;101033.28;5021091;28;20032;-68
2021/09/20 07:59:57;;;;;;;10.15;1.52;;;;;;;13.71;93.86;101029.16;5036341;28;20083;-68
2021/09/20 08:02:22;;;;;;;8.18;1.80;;;;;;;13.85;93.62;101041.19;5004690;28;20113;-68
2021/09/20 08:04:48;;;;;;;8.57;1.20;;;;;;;13.99;92.55;101034.84;5003422;28;20029;-68
2021/09/20 08:07:13;;;;;;;18.13;1.95;;;;;;;14.14;93.30;101036.56;5018852;28;20056;-68
2021/09/20 08:09:39;;;;;;;15.25;1.95;;;;;;;14.27;93.21;101047.78;5021513;28;20385;-68
2021/09/20 08:12:04;;;;;;;12.00;1.63;;;;;;;14.38;92.64;101045.63;5004664;28;20036;-68
2021/09/20 08:14:30;;;;;;;12.27;2.05;;;;;;;14.49;92.03;101054.66;5022272;28;20029;-68
2021/09/20 08:16:55;;;;;;;11.88;2.03;;;;;;;14.60;91.33;101053.38;5028240;28;20033;-68
2021/09/20 08:19:21;;;;;;;11.52;1.73;;;;;;;14.70;91.20;101050.38;5014413;28;20033;-68
2021/09/20 08:21:47;;;;;;;8.77;1.38;;;;;;;14.82;92.38;101047.09;4995604;28;20110;-68
2021/09/20 08:24:12;;;;;;;13.05;1.95;;;;;;;14.92;90.96;101054.44;5019752;28;20067;-68
2021/09/20 08:26:38;;;;;;;7.80;1.60;;;;;;;14.98;90.64;101048.41;5036804;28;20029;-68
2021/09/20 08:29:03;;;;;;;15.80;2.03;;;;;;;15.08;91.38;101057.75;5020310;28;20370;-68
2021/09/20 08:31:29;;;;;;;11.00;1.95;;;;;;;15.18;91.14;101065.91;5054564;28;20021;-68
2021/09/20 08:33:54;;;;;;;12.85;2.08;;;;;;;15.28;90.66;101065.72;5019382;28;20087;-68
2021/09/20 08:36:20;;;;;;;11.35;2.10;;;;;;;15.36;90.91;101067.78;5034993;28;20040;-68
2021/09/20 08:38:46;;;;;;;53.13;7.07;;;;;;;15.48;90.98;101060.81;5035798;28;20033;-68
2021/09/20 08:41:11;;;;;;;29.38;3.70;;;;;;;15.53;91.09;101063.50;5020658;28;20116;-68
2021/09/20 08:43:38;;;;;;;24.20;3.85;;;;;;;15.65;90.74;101067.41;5003622;28;20428;-68
2021/09/20 08:46:05;;;;;;;16.73;2.95;;;;;;;15.74;91.10;101078.75;5002790;28;20040;-68
2021/09/20 08:48:43;;;;;;;19.67;2.88;;;;;;;15.85;90.25;101074.56;5018696;28;20504;-68
2021/09/20 08:51:08;;;;;;;13.60;2.83;;;;;;;15.99;89.99;101080.13;5015137;28;20025;-68
2021/09/20 08:53:34;;;;;;;17.33;2.72;;;;;;;16.12;89.39;101078.38;5018878;28;20041;-68
2021/09/20 08:55:59;;;;;;;14.10;2.65;;;;;;;16.23;88.77;101076.16;5022712;28;20493;-68
2021/09/20 08:58:26;;;;;;;13.25;2.42;;;;;;;16.35;88.59;101087.63;5008982;28;20028;-68
2021/09/20 09:00:52;;;;;;;10.88;2.10;;;;;;;16.49;87.34;101090.34;5019605;28;20116;-68
2021/09/20 09:03:24;;;;;;;15.68;3.03;;;;;;;16.53;86.11;101088.56;5019430;28;20037;-68
2021/09/20 09:05:50;;;;;;;11.90;2.42;;;;;;;16.62;86.14;101102.66;5025948;28;20087;-68
2021/09/20 09:08:18;;;;;;;18.42;2.55;;;;;;;16.66;85.51;101103.66;5035850;28;20041;-68
2021/09/20 09:10:44;;;;;;;11.30;1.90;;;;;;;16.73;84.92;101099.25;5018274;28;20035;-68
2021/09/20 09:13:11;;;;;;;13.25;2.20;;;;;;;16.83;85.28;101102.97;5013245;28;20091;-68
2021/09/20 09:15:36;;;;;;;12.82;2.00;;;;;;;16.81;84.25;101099.66;5032303;28;20164;-68
2021/09/20 09:18:03;;;;;;;12.50;2.10;;;;;;;16.79;84.28;101102.78;5024032;28;20494;-68
2021/09/20 09:20:33;;;;;;;7.80;1.75;;;;;;;16.83;83.43;101103.81;5031529;28;20083;-68
2021/09/20 09:23:00;;;;;;;7.90;2.00;;;;;;;16.86;83.21;101111.56;5032003;28;20037;-68
2021/09/20 09:25:27;;;;;;;9.65;1.60;;;;;;;16.86;83.06;101120.00;5038313;28;20103;-68
2021/09/20 09:28:02;;;;;;;12.00;2.15;;;;;;;16.89;82.44;101124.13;5038824;28;20029;-68
2021/09/20 09:30:38;;;;;;;12.32;1.95;;;;;;;16.84;81.96;101127.88;5007543;28;20045;-68
2021/09/20 09:33:07;;;;;;;12.20;1.90;;;;;;;16.92;82.14;101131.91;5023402;28;20123;-68
2021/09/20 09:35:33;;;;;;;11.10;1.73;;;;;;;17.00;82.13;101130.28;5021417;28;20052;-68
2021/09/20 09:38:04;;;;;;;12.25;1.77;;;;;;;17.05;82.02;101130.97;5021211;28;20028;-69
2021/09/20 09:40:30;;;;;;;11.20;1.88;;;;;;;17.12;81.43;101122.91;5007242;28;20409;-68
2021/09/20 09:43:00;;;;;;;10.07;2.05;;;;;;;17.13;79.52;101129.34;5006873;28;20564;-68
2021/09/20 09:45:29;;;;;;;10.73;1.52;;;;;;;17.21;80.43;101131.34;5038308;28;20032;-68
2021/09/20 09:48:10;;;;;;;9.93;1.98;;;;;;;17.24;79.53;101136.31;5006787;28;20028;-68
2021/09/20 09:50:41;;;;;;;19.08;2.08;;;;;;;17.27;78.72;101135.66;5038572;28;20025;-68
2021/09/20 09:53:07;;;;;;;5.85;1.20;;;;;;;17.28;78.45;101139.34;5025573;28;20111;-68
2021/09/20 09:55:33;;;;;;;10.27;1.55;;;;;;;17.37;78.22;101128.94;5025625;28;20031;-68
2021/09/20 09:58:10;;;;;;;10.80;1.70;;;;;;;17.35;78.24;101126.47;5014219;28;20040;-68
2021/09/20 10:00:35;;;;;;;13.13;1.50;;;;;;;17.34;78.14;101135.22;4997867;28;20041;-68
2021/09/20 10:03:02;;;;;;;13.13;1.40;;;;;;;17.37;77.93;101134.56;5005992;28;20120;-68
2021/09/20 10:05:28;;;;;;;5.70;1.52;;;;;;;17.34;78.00;101136.03;5021005;28;20025;-68
2021/09/20 10:07:54;;;;;;;7.90;1.40;;;;;;;17.35;77.75;101139.66;5039138;28;20035;-68
2021/09/20 10:10:22;;;;;;;12.63;1.50;;;;;;;17.30;77.67;101137.00;5021673;28;20082;-68
2021/09/20 10:12:48;;;;;;;9.48;1.45;;;;;;;17.33;78.19;101134.41;5020515;28;20048;-68
2021/09/20 10:15:17;;;;;;;13.27;1.52;;;;;;;17.38;78.10;101141.81;5017901;28;20036;-68
2021/09/20 10:17:42;;;;;;;9.35;1.38;;;;;;;17.42;78.40;101145.66;5022365;28;20033;-68
2021/09/20 10:20:10;;;;;;;7.75;1.63;;;;;;;17.38;78.17;101139.03;5021308;28;20039;-68
2021/09/20 10:22:36;;;;;;;8.00;1.40;;;;;;;17.38;77.79;101139.03;5020162;28;20028;-68
2021/09/20 10:25:03;;;;;;;11.95;1.70;;;;;;;17.35;78.40;101145.28;5005846;28;20029;-68
2021/09/20 10:27:29;;;;;;;9.40;1.65;;;;;;;17.40;78.27;101137.53;5021622;28;20036;-69
2021/09/20 10:30:01;;;;;;;9.98;1.70;;;;;;;17.45;78.37;101147.00;5019761;28;20489;-68
2021/09/20 10:32:27;;;;;;;6.05;1.20;;;;;;;17.52;78.04;101150.94;5016508;28;20037;-68
2021/09/20 10:35:19;;;;;;;10.02;1.42;;;;;;;17.58;77.35;101148.84;5034553;28;20064;-68
2021/09/20 10:37:45;;;;;;;9.00;1.73;;;;;;;17.63;76.77;101149.53;5037051;28;20032;-68
2021/09/20 10:40:10;;;;;;;7.88;1.48;;;;;;;17.68;76.42;101150.53;5038562;28;20029;-68
2021/09/20 10:42:36;;;;;;;9.02;1.50;;;;;;;17.69;76.05;101152.16;5023042;28;20056;-68
2021/09/20 10:45:07;;;;;;;9.93;1.67;;;;;;;17.76;76.38;101144.91;5036897;28;20041;-68
2021/09/20 10:47:44;;;;;;;10.63;1.92;;;;;;;17.78;74.76;101150.22;5006401;28;20427;-68
2021/09/20 10:50:10;;;;;;;10.02;1.52;;;;;;;17.79;74.66;101147.09;5043284;28;20028;-68
2021/09/20 10:52:36;;;;;;;9.75;1.50;;;;;;;17.87;74.69;101148.28;5019391;28;20041;-68
2021/09/20 10:55:08;;;;;;;9.02;1.60;;;;;;;17.94;75.38;101148.63;5031068;28;20041;-68
2021/09/20 10:57:34;;;;;;;7.18;1.60;;;;;;;17.99;74.56;101151.25;5008358;28;20037;-68
2021/09/20 11:00:24;;;;;;;6.43;1.40;;;;;;;18.04;74.03;101145.47;5025050;28;20071;-68
2021/09/20 11:02:50;;;;;;;4.82;1.17;;;;;;;18.09;74.47;101159.38;5037513;28;20123;-68
2021/09/20 11:05:16;;;;;;;6.35;1.38;;;;;;;18.14;73.82;101151.97;5006051;28;20068;-68
2021/09/20 11:07:46;;;;;;;8.00;1.75;;;;;;;18.19;73.87;101151.78;5019501;28;20026;-68
2021/09/20 11:10:12;;;;;;;9.95;1.65;;;;;;;18.27;73.73;101150.94;5020320;28;20040;-68
2021/09/20 11:12:57;;;;;;;8.60;1.70;;;;;;;18.31;72.07;101149.16;5022422;28;20029;-68
2021/09/20 11:15:23;;;;;;;76.07;7.25;;;;;;;18.37;72.57;101147.00;5033641;28;20108;-68
2021/09/20 11:17:50;;;;;;;26.58;3.00;;;;;;;18.43;72.57;101152.09;5003131;28;20040;-68
2021/09/20 11:20:29;;;;;;;24.75;3.00;;;;;;;18.45;72.34;101146.16;5019375;28;20029;-68